sensor_id;sensor_type;location;lat;lon;timestamp;P1;durP1;ratioP1;P2;durP2;ratioP2
29412;SDS011;16389;50.126;8.450;2023-04-16T00:01:38;4.43;;;3.67;;
29412;SDS011;16389;50.126;8.450;2023-04-16T00:04:03;4.20;;;3.45;;
29412;SDS011;16389;50.126;8.450;2023-04-16T00:06:29;5.10;;;3.35;;
29412;SDS011;16389;50.126;8.450;2023-04-16T00:08:55;4.13;;;2.92;;
29412;SDS011;16389;50.126;8.450;2023-04-16T00:11:21;3.50;;;2.97;;
29412;SDS011;16389;50.126;8.450;2023-04-16T00:13:47;3.78;;;3.40;;
29412;SDS011;16389;50.126;8.450;2023-04-16T00:16:13;3.63;;;3.03;;
29412;SDS011;16389;50.126;8.450;2023-04-16T00:18:38;5.05;;;3.55;;
29412;SDS011;16389;50.126;8.450;2023-04-16T00:21:05;3.22;;;2.85;;
29412;SDS011;16389;50.126;8.450;2023-04-16T00:23:31;4.70;;;3.47;;
29412;SDS011;16389;50.126;8.450;2023-04-16T00:25:57;4.20;;;3.70;;
29412;SDS011;16389;50.126;8.450;2023-04-16T00:28:24;6.13;;;3.78;;
29412;SDS011;16389;50.126;8.450;2023-04-16T00:30:50;6.63;;;3.75;;
29412;SDS011;16389;50.126;8.450;2023-04-16T00:33:16;8.77;;;4.18;;
29412;SDS011;16389;50.126;8.450;2023-04-16T00:35:43;4.78;;;3.70;;
29412;SDS011;16389;50.126;8.450;2023-04-16T00:38:10;4.47;;;2.92;;
29412;SDS011;16389;50.126;8.450;2023-04-16T00:40:35;4.97;;;2.72;;
29412;SDS011;16389;50.126;8.450;2023-04-16T00:43:01;6.72;;;4.18;;
29412;SDS011;16389;50.126;8.450;2023-04-16T00:45:27;5.75;;;4.05;;
29412;SDS011;16389;50.126;8.450;2023-04-16T00:47:54;5.03;;;3.58;;
29412;SDS011;16389;50.126;8.450;2023-04-16T00:50:21;4.97;;;3.72;;
29412;SDS011;16389;50.126;8.450;2023-04-16T00:52:47;4.78;;;3.53;;
29412;SDS011;16389;50.126;8.450;2023-04-16T00:55:14;8.48;;;3.35;;
29412;SDS011;16389;50.126;8.450;2023-04-16T00:57:41;4.50;;;3.50;;
29412;SDS011;16389;50.126;8.450;2023-04-16T01:00:07;4.68;;;3.28;;
29412;SDS011;16389;50.126;8.450;2023-04-16T01:02:35;4.05;;;3.22;;
29412;SDS011;16389;50.126;8.450;2023-04-16T01:05:01;4.60;;;3.35;;
29412;SDS011;16389;50.126;8.450;2023-04-16T01:07:28;3.80;;;3.20;;
29412;SDS011;16389;50.126;8.450;2023-04-16T01:09:53;4.70;;;3.28;;
29412;SDS011;16389;50.126;8.450;2023-04-16T01:12:20;4.57;;;3.33;;
29412;SDS011;16389;50.126;8.450;2023-04-16T01:14:45;5.50;;;4.20;;
29412;SDS011;16389;50.126;8.450;2023-04-16T01:17:11;6.32;;;3.67;;
29412;SDS011;16389;50.126;8.450;2023-04-16T01:19:37;6.57;;;3.15;;
29412;SDS011;16389;50.126;8.450;2023-04-16T01:22:03;7.78;;;3.72;;
29412;SDS011;16389;50.126;8.450;2023-04-16T01:24:29;4.13;;;3.42;;
29412;SDS011;16389;50.126;8.450;2023-04-16T01:26:56;5.78;;;4.28;;
29412;SDS011;16389;50.126;8.450;2023-04-16T01:29:23;4.43;;;3.05;;
29412;SDS011;16389;50.126;8.450;2023-04-16T01:31:49;5.60;;;3.90;;
29412;SDS011;16389;50.126;8.450;2023-04-16T01:34:15;5.55;;;3.53;;
29412;SDS011;16389;50.126;8.450;2023-04-16T01:36:40;7.88;;;4.47;;
29412;SDS011;16389;50.126;8.450;2023-04-16T01:39:06;5.28;;;4.15;;
29412;SDS011;16389;50.126;8.450;2023-04-16T01:41:35;6.47;;;4.43;;
29412;SDS011;16389;50.126;8.450;2023-04-16T01:44:01;5.25;;;3.78;;
29412;SDS011;16389;50.126;8.450;2023-04-16T01:46:27;4.57;;;3.83;;
29412;SDS011;16389;50.126;8.450;2023-04-16T01:48:55;7.20;;;4.50;;
29412;SDS011;16389;50.126;8.450;2023-04-16T01:51:21;6.50;;;4.80;;
29412;SDS011;16389;50.126;8.450;2023-04-16T01:53:48;6.93;;;4.55;;
29412;SDS011;16389;50.126;8.450;2023-04-16T01:56:15;5.28;;;4.13;;
29412;SDS011;16389;50.126;8.450;2023-04-16T01:58:40;4.72;;;3.60;;
29412;SDS011;16389;50.126;8.450;2023-04-16T02:01:07;5.30;;;4.30;;
29412;SDS011;16389;50.126;8.450;2023-04-16T02:03:33;5.07;;;4.57;;
29412;SDS011;16389;50.126;8.450;2023-04-16T02:05:58;6.05;;;4.60;;
29412;SDS011;16389;50.126;8.450;2023-04-16T02:08:25;7.05;;;4.68;;
29412;SDS011;16389;50.126;8.450;2023-04-16T02:10:51;5.18;;;4.47;;
29412;SDS011;16389;50.126;8.450;2023-04-16T02:13:16;5.00;;;3.78;;
29412;SDS011;16389;50.126;8.450;2023-04-16T02:15:46;6.22;;;4.20;;
29412;SDS011;16389;50.126;8.450;2023-04-16T02:18:12;5.82;;;4.63;;
29412;SDS011;16389;50.126;8.450;2023-04-16T02:20:39;6.28;;;4.50;;
29412;SDS011;16389;50.126;8.450;2023-04-16T02:23:08;6.35;;;4.97;;
29412;SDS011;16389;50.126;8.450;2023-04-16T02:25:38;6.07;;;5.05;;
29412;SDS011;16389;50.126;8.450;2023-04-16T02:28:05;7.32;;;5.50;;
29412;SDS011;16389;50.126;8.450;2023-04-16T02:30:32;5.40;;;4.13;;
29412;SDS011;16389;50.126;8.450;2023-04-16T02:32:59;7.53;;;4.70;;
29412;SDS011;16389;50.126;8.450;2023-04-16T02:35:27;9.18;;;5.75;;
29412;SDS011;16389;50.126;8.450;2023-04-16T02:37:53;7.85;;;5.20;;
29412;SDS011;16389;50.126;8.450;2023-04-16T02:40:18;7.20;;;5.07;;
29412;SDS011;16389;50.126;8.450;2023-04-16T02:42:44;6.35;;;4.40;;
29412;SDS011;16389;50.126;8.450;2023-04-16T02:45:10;6.05;;;5.43;;
29412;SDS011;16389;50.126;8.450;2023-04-16T02:47:36;5.32;;;4.45;;
29412;SDS011;16389;50.126;8.450;2023-04-16T02:50:01;7.30;;;5.18;;
29412;SDS011;16389;50.126;8.450;2023-04-16T02:52:27;7.10;;;4.55;;
29412;SDS011;16389;50.126;8.450;2023-04-16T02:54:53;5.47;;;4.97;;
29412;SDS011;16389;50.126;8.450;2023-04-16T02:57:18;6.10;;;4.95;;
29412;SDS011;16389;50.126;8.450;2023-04-16T02:59:44;8.10;;;5.45;;
29412;SDS011;16389;50.126;8.450;2023-04-16T03:02:10;6.13;;;5.07;;
29412;SDS011;16389;50.126;8.450;2023-04-16T03:04:36;13.82;;;5.00;;
29412;SDS011;16389;50.126;8.450;2023-04-16T03:07:01;7.40;;;5.45;;
29412;SDS011;16389;50.126;8.450;2023-04-16T03:09:27;7.13;;;4.72;;
29412;SDS011;16389;50.126;8.450;2023-04-16T03:11:53;7.88;;;4.40;;
29412;SDS011;16389;50.126;8.450;2023-04-16T03:14:18;7.55;;;4.90;;
29412;SDS011;16389;50.126;8.450;2023-04-16T03:16:44;7.53;;;5.35;;
29412;SDS011;16389;50.126;8.450;2023-04-16T03:19:10;6.30;;;5.05;;
29412;SDS011;16389;50.126;8.450;2023-04-16T03:21:35;5.43;;;4.90;;
29412;SDS011;16389;50.126;8.450;2023-04-16T03:24:01;7.40;;;4.95;;
29412;SDS011;16389;50.126;8.450;2023-04-16T03:26:26;6.68;;;4.72;;
29412;SDS011;16389;50.126;8.450;2023-04-16T03:28:52;6.72;;;4.55;;
29412;SDS011;16389;50.126;8.450;2023-04-16T03:31:18;8.27;;;5.47;;
29412;SDS011;16389;50.126;8.450;2023-04-16T03:33:43;6.32;;;5.13;;
29412;SDS011;16389;50.126;8.450;2023-04-16T03:36:09;10.00;;;6.32;;
29412;SDS011;16389;50.126;8.450;2023-04-16T03:38:35;7.15;;;5.53;;
29412;SDS011;16389;50.126;8.450;2023-04-16T03:41:00;6.85;;;5.25;;
29412;SDS011;16389;50.126;8.450;2023-04-16T03:43:26;8.50;;;6.22;;
29412;SDS011;16389;50.126;8.450;2023-04-16T03:45:52;9.52;;;6.25;;
29412;SDS011;16389;50.126;8.450;2023-04-16T03:48:17;7.90;;;5.80;;
29412;SDS011;16389;50.126;8.450;2023-04-16T03:50:46;7.85;;;6.10;;
29412;SDS011;16389;50.126;8.450;2023-04-16T03:53:12;7.37;;;5.77;;
29412;SDS011;16389;50.126;8.450;2023-04-16T03:55:38;9.50;;;5.82;;
29412;SDS011;16389;50.126;8.450;2023-04-16T03:58:04;8.13;;;5.68;;
29412;SDS011;16389;50.126;8.450;2023-04-16T04:00:30;7.20;;;5.72;;
29412;SDS011;16389;50.126;8.450;2023-04-16T04:02:55;8.45;;;6.90;;
29412;SDS011;16389;50.126;8.450;2023-04-16T04:05:21;9.50;;;5.43;;
29412;SDS011;16389;50.126;8.450;2023-04-16T04:07:47;8.70;;;5.22;;
29412;SDS011;16389;50.126;8.450;2023-04-16T04:10:13;7.75;;;4.75;;
29412;SDS011;16389;50.126;8.450;2023-04-16T04:12:38;7.70;;;5.97;;
29412;SDS011;16389;50.126;8.450;2023-04-16T04:15:04;7.45;;;5.45;;
29412;SDS011;16389;50.126;8.450;2023-04-16T04:17:30;8.48;;;5.72;;
29412;SDS011;16389;50.126;8.450;2023-04-16T04:19:56;5.07;;;4.55;;
29412;SDS011;16389;50.126;8.450;2023-04-16T04:22:21;7.57;;;5.45;;
29412;SDS011;16389;50.126;8.450;2023-04-16T04:24:47;6.95;;;4.95;;
29412;SDS011;16389;50.126;8.450;2023-04-16T04:27:13;5.70;;;4.25;;
29412;SDS011;16389;50.126;8.450;2023-04-16T04:29:38;6.82;;;4.32;;
29412;SDS011;16389;50.126;8.450;2023-04-16T04:32:04;6.88;;;5.13;;
29412;SDS011;16389;50.126;8.450;2023-04-16T04:34:30;8.18;;;4.55;;
29412;SDS011;16389;50.126;8.450;2023-04-16T04:36:55;6.47;;;4.50;;
29412;SDS011;16389;50.126;8.450;2023-04-16T04:39:21;6.25;;;4.03;;
29412;SDS011;16389;50.126;8.450;2023-04-16T04:41:47;6.35;;;5.40;;
29412;SDS011;16389;50.126;8.450;2023-04-16T04:44:13;6.65;;;4.85;;
29412;SDS011;16389;50.126;8.450;2023-04-16T04:46:39;6.05;;;4.55;;
29412;SDS011;16389;50.126;8.450;2023-04-16T04:49:05;6.03;;;4.70;;
29412;SDS011;16389;50.126;8.450;2023-04-16T04:51:31;5.55;;;4.38;;
29412;SDS011;16389;50.126;8.450;2023-04-16T04:53:57;5.68;;;4.13;;
29412;SDS011;16389;50.126;8.450;2023-04-16T04:56:22;5.43;;;4.35;;
29412;SDS011;16389;50.126;8.450;2023-04-16T04:58:48;6.90;;;5.07;;
29412;SDS011;16389;50.126;8.450;2023-04-16T05:01:15;7.25;;;4.57;;
29412;SDS011;16389;50.126;8.450;2023-04-16T05:03:41;5.50;;;3.60;;
29412;SDS011;16389;50.126;8.450;2023-04-16T05:06:06;6.53;;;4.68;;
29412;SDS011;16389;50.126;8.450;2023-04-16T05:08:32;5.85;;;4.68;;
29412;SDS011;16389;50.126;8.450;2023-04-16T05:10:57;8.73;;;5.82;;
29412;SDS011;16389;50.126;8.450;2023-04-16T05:13:23;5.57;;;4.28;;
29412;SDS011;16389;50.126;8.450;2023-04-16T05:15:49;7.00;;;4.75;;
29412;SDS011;16389;50.126;8.450;2023-04-16T05:18:14;5.28;;;3.55;;
29412;SDS011;16389;50.126;8.450;2023-04-16T05:20:40;5.13;;;3.53;;
29412;SDS011;16389;50.126;8.450;2023-04-16T05:23:05;8.07;;;5.60;;
29412;SDS011;16389;50.126;8.450;2023-04-16T05:25:31;8.32;;;4.85;;
29412;SDS011;16389;50.126;8.450;2023-04-16T05:27:57;7.43;;;5.30;;
29412;SDS011;16389;50.126;8.450;2023-04-16T05:30:22;5.90;;;4.40;;
29412;SDS011;16389;50.126;8.450;2023-04-16T05:32:48;6.28;;;4.68;;
29412;SDS011;16389;50.126;8.450;2023-04-16T05:35:13;6.32;;;4.43;;
29412;SDS011;16389;50.126;8.450;2023-04-16T05:37:39;7.50;;;4.68;;
29412;SDS011;16389;50.126;8.450;2023-04-16T05:40:05;5.47;;;4.65;;
29412;SDS011;16389;50.126;8.450;2023-04-16T05:42:31;6.78;;;4.82;;
29412;SDS011;16389;50.126;8.450;2023-04-16T05:44:56;7.40;;;5.85;;
29412;SDS011;16389;50.126;8.450;2023-04-16T05:47:22;7.85;;;5.63;;
29412;SDS011;16389;50.126;8.450;2023-04-16T05:49:48;6.13;;;4.55;;
29412;SDS011;16389;50.126;8.450;2023-04-16T05:52:14;6.72;;;5.00;;
29412;SDS011;16389;50.126;8.450;2023-04-16T05:54:40;6.35;;;4.60;;
29412;SDS011;16389;50.126;8.450;2023-04-16T05:57:06;6.97;;;4.95;;
29412;SDS011;16389;50.126;8.450;2023-04-16T05:59:31;6.90;;;5.40;;
29412;SDS011;16389;50.126;8.450;2023-04-16T06:01:58;6.38;;;5.10;;
29412;SDS011;16389;50.126;8.450;2023-04-16T06:04:24;6.35;;;4.82;;
29412;SDS011;16389;50.126;8.450;2023-04-16T06:06:49;7.10;;;4.90;;
29412;SDS011;16389;50.126;8.450;2023-04-16T06:09:15;6.63;;;4.90;;
29412;SDS011;16389;50.126;8.450;2023-04-16T06:11:41;7.18;;;4.97;;
29412;SDS011;16389;50.126;8.450;2023-04-16T06:14:07;6.55;;;4.30;;
29412;SDS011;16389;50.126;8.450;2023-04-16T06:16:32;6.15;;;3.95;;
29412;SDS011;16389;50.126;8.450;2023-04-16T06:18:58;6.35;;;4.75;;
29412;SDS011;16389;50.126;8.450;2023-04-16T06:21:24;6.88;;;4.55;;
29412;SDS011;16389;50.126;8.450;2023-04-16T06:23:50;8.18;;;5.82;;
29412;SDS011;16389;50.126;8.450;2023-04-16T06:26:16;16.85;;;4.82;;
29412;SDS011;16389;50.126;8.450;2023-04-16T06:28:42;6.82;;;4.82;;
29412;SDS011;16389;50.126;8.450;2023-04-16T06:31:07;6.32;;;4.80;;
29412;SDS011;16389;50.126;8.450;2023-04-16T06:33:33;11.52;;;4.68;;
29412;SDS011;16389;50.126;8.450;2023-04-16T06:35:59;5.85;;;4.30;;
29412;SDS011;16389;50.126;8.450;2023-04-16T06:38:24;5.47;;;4.47;;
29412;SDS011;16389;50.126;8.450;2023-04-16T06:40:50;4.88;;;3.75;;
29412;SDS011;16389;50.126;8.450;2023-04-16T06:43:15;6.28;;;4.15;;
29412;SDS011;16389;50.126;8.450;2023-04-16T06:45:42;5.45;;;3.97;;
29412;SDS011;16389;50.126;8.450;2023-04-16T06:48:07;6.10;;;4.72;;
29412;SDS011;16389;50.126;8.450;2023-04-16T06:50:33;6.53;;;4.68;;
29412;SDS011;16389;50.126;8.450;2023-04-16T06:52:59;5.18;;;3.50;;
29412;SDS011;16389;50.126;8.450;2023-04-16T06:55:24;5.95;;;4.20;;
29412;SDS011;16389;50.126;8.450;2023-04-16T06:57:50;5.50;;;4.38;;
29412;SDS011;16389;50.126;8.450;2023-04-16T07:00:16;5.50;;;3.70;;
29412;SDS011;16389;50.126;8.450;2023-04-16T07:02:41;5.22;;;3.85;;
29412;SDS011;16389;50.126;8.450;2023-04-16T07:05:07;5.32;;;3.88;;
29412;SDS011;16389;50.126;8.450;2023-04-16T07:07:33;7.35;;;4.00;;
29412;SDS011;16389;50.126;8.450;2023-04-16T07:09:59;5.43;;;3.80;;
29412;SDS011;16389;50.126;8.450;2023-04-16T07:12:24;7.65;;;4.15;;
29412;SDS011;16389;50.126;8.450;2023-04-16T07:14:51;5.20;;;4.10;;
29412;SDS011;16389;50.126;8.450;2023-04-16T07:17:16;5.25;;;3.50;;
29412;SDS011;16389;50.126;8.450;2023-04-16T07:19:42;5.60;;;3.67;;
29412;SDS011;16389;50.126;8.450;2023-04-16T07:22:08;5.63;;;3.50;;
29412;SDS011;16389;50.126;8.450;2023-04-16T07:24:34;4.43;;;3.53;;
29412;SDS011;16389;50.126;8.450;2023-04-16T07:27:00;4.00;;;3.47;;
29412;SDS011;16389;50.126;8.450;2023-04-16T07:29:25;5.22;;;3.50;;
29412;SDS011;16389;50.126;8.450;2023-04-16T07:31:51;7.32;;;4.28;;
29412;SDS011;16389;50.126;8.450;2023-04-16T07:34:16;5.00;;;3.83;;
29412;SDS011;16389;50.126;8.450;2023-04-16T07:36:42;7.60;;;4.78;;
29412;SDS011;16389;50.126;8.450;2023-04-16T07:39:07;4.88;;;3.60;;
29412;SDS011;16389;50.126;8.450;2023-04-16T07:41:34;5.90;;;4.85;;
29412;SDS011;16389;50.126;8.450;2023-04-16T07:44:00;4.65;;;3.50;;
29412;SDS011;16389;50.126;8.450;2023-04-16T07:46:26;5.88;;;4.00;;
29412;SDS011;16389;50.126;8.450;2023-04-16T07:48:51;5.30;;;3.92;;
29412;SDS011;16389;50.126;8.450;2023-04-16T07:51:17;6.25;;;4.18;;
29412;SDS011;16389;50.126;8.450;2023-04-16T07:53:42;8.75;;;5.07;;
29412;SDS011;16389;50.126;8.450;2023-04-16T07:56:08;6.43;;;4.50;;
29412;SDS011;16389;50.126;8.450;2023-04-16T07:58:34;6.28;;;4.55;;
29412;SDS011;16389;50.126;8.450;2023-04-16T08:00:59;5.97;;;4.55;;
29412;SDS011;16389;50.126;8.450;2023-04-16T08:03:26;7.80;;;5.00;;
29412;SDS011;16389;50.126;8.450;2023-04-16T08:05:51;7.90;;;5.32;;
29412;SDS011;16389;50.126;8.450;2023-04-16T08:08:17;6.97;;;5.78;;
29412;SDS011;16389;50.126;8.450;2023-04-16T08:10:42;7.82;;;5.55;;
29412;SDS011;16389;50.126;8.450;2023-04-16T08:13:08;5.80;;;4.55;;
29412;SDS011;16389;50.126;8.450;2023-04-16T08:15:34;5.72;;;4.72;;
29412;SDS011;16389;50.126;8.450;2023-04-16T08:17:59;7.68;;;6.18;;
29412;SDS011;16389;50.126;8.450;2023-04-16T08:20:25;6.13;;;4.53;;
29412;SDS011;16389;50.126;8.450;2023-04-16T08:22:52;6.20;;;4.88;;
29412;SDS011;16389;50.126;8.450;2023-04-16T08:25:18;10.73;;;5.57;;
29412;SDS011;16389;50.126;8.450;2023-04-16T08:27:44;7.78;;;4.45;;
29412;SDS011;16389;50.126;8.450;2023-04-16T08:30:10;7.32;;;5.82;;
29412;SDS011;16389;50.126;8.450;2023-04-16T08:32:36;6.07;;;5.10;;
29412;SDS011;16389;50.126;8.450;2023-04-16T08:35:02;7.38;;;5.57;;
29412;SDS011;16389;50.126;8.450;2023-04-16T08:37:27;8.88;;;4.93;;
29412;SDS011;16389;50.126;8.450;2023-04-16T08:39:53;6.63;;;5.32;;
29412;SDS011;16389;50.126;8.450;2023-04-16T08:42:22;5.35;;;4.68;;
29412;SDS011;16389;50.126;8.450;2023-04-16T08:47:47;8.70;;;6.72;;
29412;SDS011;16389;50.126;8.450;2023-04-16T08:50:15;6.82;;;5.57;;
29412;SDS011;16389;50.126;8.450;2023-04-16T08:52:48;5.82;;;4.55;;
29412;SDS011;16389;50.126;8.450;2023-04-16T08:55:21;7.03;;;5.22;;
29412;SDS011;16389;50.126;8.450;2023-04-16T08:57:50;6.97;;;6.25;;
29412;SDS011;16389;50.126;8.450;2023-04-16T09:00:21;5.50;;;4.32;;
29412;SDS011;16389;50.126;8.450;2023-04-16T09:02:48;9.23;;;5.97;;
29412;SDS011;16389;50.126;8.450;2023-04-16T09:05:15;8.48;;;4.53;;
29412;SDS011;16389;50.126;8.450;2023-04-16T09:07:43;6.43;;;4.65;;
29412;SDS011;16389;50.126;8.450;2023-04-16T09:10:10;6.68;;;4.63;;
29412;SDS011;16389;50.126;8.450;2023-04-16T09:12:36;10.68;;;5.50;;
29412;SDS011;16389;50.126;8.450;2023-04-16T09:15:04;8.48;;;4.63;;
29412;SDS011;16389;50.126;8.450;2023-04-16T09:17:30;6.90;;;4.72;;
29412;SDS011;16389;50.126;8.450;2023-04-16T09:19:58;7.63;;;4.85;;
29412;SDS011;16389;50.126;8.450;2023-04-16T09:22:24;6.70;;;5.93;;
29412;SDS011;16389;50.126;8.450;2023-04-16T09:24:49;7.05;;;5.93;;
29412;SDS011;16389;50.126;8.450;2023-04-16T09:27:15;5.97;;;4.65;;
29412;SDS011;16389;50.126;8.450;2023-04-16T09:29:41;6.97;;;4.97;;
29412;SDS011;16389;50.126;8.450;2023-04-16T09:32:07;5.93;;;4.78;;
29412;SDS011;16389;50.126;8.450;2023-04-16T09:34:36;6.63;;;5.45;;
29412;SDS011;16389;50.126;8.450;2023-04-16T09:37:25;8.43;;;4.93;;
29412;SDS011;16389;50.126;8.450;2023-04-16T09:39:58;6.28;;;4.55;;
29412;SDS011;16389;50.126;8.450;2023-04-16T09:42:29;7.45;;;5.38;;
29412;SDS011;16389;50.126;8.450;2023-04-16T09:44:57;7.03;;;4.93;;
29412;SDS011;16389;50.126;8.450;2023-04-16T09:47:24;7.93;;;5.10;;
29412;SDS011;16389;50.126;8.450;2023-04-16T09:50:01;6.45;;;5.30;;
29412;SDS011;16389;50.126;8.450;2023-04-16T09:52:27;6.78;;;4.47;;
29412;SDS011;16389;50.126;8.450;2023-04-16T09:54:53;8.35;;;5.28;;
29412;SDS011;16389;50.126;8.450;2023-04-16T09:57:24;7.25;;;5.70;;
29412;SDS011;16389;50.126;8.450;2023-04-16T09:59:51;7.32;;;5.32;;
29412;SDS011;16389;50.126;8.450;2023-04-16T10:02:18;6.68;;;5.07;;
29412;SDS011;16389;50.126;8.450;2023-04-16T10:04:45;5.20;;;4.70;;
29412;SDS011;16389;50.126;8.450;2023-04-16T10:07:14;7.43;;;5.35;;
29412;SDS011;16389;50.126;8.450;2023-04-16T10:09:41;6.75;;;4.25;;
29412;SDS011;16389;50.126;8.450;2023-04-16T10:12:07;6.57;;;4.75;;
29412;SDS011;16389;50.126;8.450;2023-04-16T10:14:33;5.85;;;4.75;;
29412;SDS011;16389;50.126;8.450;2023-04-16T10:16:59;5.35;;;4.57;;
29412;SDS011;16389;50.126;8.450;2023-04-16T10:19:28;6.20;;;5.30;;
29412;SDS011;16389;50.126;8.450;2023-04-16T10:21:57;6.05;;;4.70;;
29412;SDS011;16389;50.126;8.450;2023-04-16T10:24:27;6.00;;;4.93;;
29412;SDS011;16389;50.126;8.450;2023-04-16T10:26:56;5.65;;;4.88;;
29412;SDS011;16389;50.126;8.450;2023-04-16T10:29:23;6.93;;;5.57;;
29412;SDS011;16389;50.126;8.450;2023-04-16T10:31:50;8.30;;;5.80;;
29412;SDS011;16389;50.126;8.450;2023-04-16T10:34:18;6.72;;;5.47;;
29412;SDS011;16389;50.126;8.450;2023-04-16T10:36:49;7.22;;;5.95;;
29412;SDS011;16389;50.126;8.450;2023-04-16T10:39:17;7.35;;;5.55;;
29412;SDS011;16389;50.126;8.450;2023-04-16T10:41:45;7.05;;;5.78;;
29412;SDS011;16389;50.126;8.450;2023-04-16T10:44:11;10.80;;;7.15;;
29412;SDS011;16389;50.126;8.450;2023-04-16T10:49:22;9.40;;;6.97;;
29412;SDS011;16389;50.126;8.450;2023-04-16T10:52:31;7.93;;;5.82;;
29412;SDS011;16389;50.126;8.450;2023-04-16T10:54:41;11.20;;;6.93;;
29412;SDS011;16389;50.126;8.450;2023-04-16T10:57:07;7.18;;;6.38;;
29412;SDS011;16389;50.126;8.450;2023-04-16T10:59:35;8.38;;;6.78;;
29412;SDS011;16389;50.126;8.450;2023-04-16T11:02:08;9.38;;;6.28;;
29412;SDS011;16389;50.126;8.450;2023-04-16T11:04:38;8.15;;;6.85;;
29412;SDS011;16389;50.126;8.450;2023-04-16T11:09:46;8.55;;;6.90;;
29412;SDS011;16389;50.126;8.450;2023-04-16T11:12:34;8.07;;;7.18;;
29412;SDS011;16389;50.126;8.450;2023-04-16T11:15:07;9.93;;;7.43;;
29412;SDS011;16389;50.126;8.450;2023-04-16T11:17:50;9.23;;;7.20;;
29412;SDS011;16389;50.126;8.450;2023-04-16T11:20:17;10.50;;;7.28;;
29412;SDS011;16389;50.126;8.450;2023-04-16T11:22:44;10.18;;;8.10;;
29412;SDS011;16389;50.126;8.450;2023-04-16T11:25:10;15.38;;;8.60;;
29412;SDS011;16389;50.126;8.450;2023-04-16T11:27:37;11.50;;;8.35;;
29412;SDS011;16389;50.126;8.450;2023-04-16T11:30:03;12.95;;;7.97;;
29412;SDS011;16389;50.126;8.450;2023-04-16T11:32:31;11.38;;;7.25;;
29412;SDS011;16389;50.126;8.450;2023-04-16T11:34:58;9.18;;;8.02;;
29412;SDS011;16389;50.126;8.450;2023-04-16T11:37:34;11.00;;;7.97;;
29412;SDS011;16389;50.126;8.450;2023-04-16T11:40:01;10.32;;;8.95;;
29412;SDS011;16389;50.126;8.450;2023-04-16T11:44:57;10.77;;;7.97;;
29412;SDS011;16389;50.126;8.450;2023-04-16T11:47:27;10.52;;;6.78;;
29412;SDS011;16389;50.126;8.450;2023-04-16T11:49:54;11.23;;;7.68;;
29412;SDS011;16389;50.126;8.450;2023-04-16T11:52:27;8.57;;;6.97;;
29412;SDS011;16389;50.126;8.450;2023-04-16T11:54:57;9.07;;;7.53;;
29412;SDS011;16389;50.126;8.450;2023-04-16T11:59:56;10.52;;;8.25;;
29412;SDS011;16389;50.126;8.450;2023-04-16T12:05:04;10.38;;;7.65;;
29412;SDS011;16389;50.126;8.450;2023-04-16T12:07:42;12.68;;;8.15;;
29412;SDS011;16389;50.126;8.450;2023-04-16T12:10:10;11.07;;;7.15;;
29412;SDS011;16389;50.126;8.450;2023-04-16T12:12:35;13.65;;;8.68;;
29412;SDS011;16389;50.126;8.450;2023-04-16T12:15:01;11.20;;;9.18;;
29412;SDS011;16389;50.126;8.450;2023-04-16T12:17:28;9.00;;;7.97;;
29412;SDS011;16389;50.126;8.450;2023-04-16T12:19:57;13.80;;;9.27;;
29412;SDS011;16389;50.126;8.450;2023-04-16T12:22:34;10.93;;;8.57;;
29412;SDS011;16389;50.126;8.450;2023-04-16T12:25:09;12.45;;;8.88;;
29412;SDS011;16389;50.126;8.450;2023-04-16T12:30:16;11.30;;;8.93;;
29412;SDS011;16389;50.126;8.450;2023-04-16T12:32:43;9.95;;;8.13;;
29412;SDS011;16389;50.126;8.450;2023-04-16T12:35:10;8.02;;;7.15;;
29412;SDS011;16389;50.126;8.450;2023-04-16T12:37:37;12.07;;;8.85;;
29412;SDS011;16389;50.126;8.450;2023-04-16T12:40:03;10.13;;;8.43;;
29412;SDS011;16389;50.126;8.450;2023-04-16T12:42:30;10.48;;;8.00;;
29412;SDS011;16389;50.126;8.450;2023-04-16T12:45:03;10.75;;;8.80;;
29412;SDS011;16389;50.126;8.450;2023-04-16T12:49:56;10.18;;;7.63;;
29412;SDS011;16389;50.126;8.450;2023-04-16T12:52:22;7.22;;;6.50;;
29412;SDS011;16389;50.126;8.450;2023-04-16T12:54:48;13.13;;;8.10;;
29412;SDS011;16389;50.126;8.450;2023-04-16T12:57:14;10.52;;;8.43;;
29412;SDS011;16389;50.126;8.450;2023-04-16T12:59:40;10.68;;;7.95;;
29412;SDS011;16389;50.126;8.450;2023-04-16T13:02:06;8.10;;;7.22;;
29412;SDS011;16389;50.126;8.450;2023-04-16T13:04:32;8.18;;;7.13;;
29412;SDS011;16389;50.126;8.450;2023-04-16T13:06:58;6.90;;;6.18;;
29412;SDS011;16389;50.126;8.450;2023-04-16T13:09:23;10.73;;;7.30;;
29412;SDS011;16389;50.126;8.450;2023-04-16T13:11:50;10.23;;;8.05;;
29412;SDS011;16389;50.126;8.450;2023-04-16T13:14:15;6.78;;;6.07;;
29412;SDS011;16389;50.126;8.450;2023-04-16T13:16:41;8.30;;;7.50;;
29412;SDS011;16389;50.126;8.450;2023-04-16T13:19:07;8.30;;;7.10;;
29412;SDS011;16389;50.126;8.450;2023-04-16T13:21:32;8.80;;;7.70;;
29412;SDS011;16389;50.126;8.450;2023-04-16T13:23:58;7.95;;;7.13;;
29412;SDS011;16389;50.126;8.450;2023-04-16T13:26:24;7.60;;;6.80;;
29412;SDS011;16389;50.126;8.450;2023-04-16T13:28:50;7.65;;;6.88;;
29412;SDS011;16389;50.126;8.450;2023-04-16T13:31:16;7.95;;;6.72;;
29412;SDS011;16389;50.126;8.450;2023-04-16T13:33:44;9.27;;;6.53;;
29412;SDS011;16389;50.126;8.450;2023-04-16T13:36:10;7.90;;;7.03;;
29412;SDS011;16389;50.126;8.450;2023-04-16T13:38:36;8.18;;;6.28;;
29412;SDS011;16389;50.126;8.450;2023-04-16T13:41:03;8.65;;;6.35;;
29412;SDS011;16389;50.126;8.450;2023-04-16T13:43:30;8.25;;;6.25;;
29412;SDS011;16389;50.126;8.450;2023-04-16T13:45:56;7.60;;;6.65;;
29412;SDS011;16389;50.126;8.450;2023-04-16T13:48:22;7.28;;;6.53;;
29412;SDS011;16389;50.126;8.450;2023-04-16T13:50:48;6.45;;;5.78;;
29412;SDS011;16389;50.126;8.450;2023-04-16T13:53:14;7.35;;;6.00;;
29412;SDS011;16389;50.126;8.450;2023-04-16T13:55:40;6.43;;;5.82;;
29412;SDS011;16389;50.126;8.450;2023-04-16T13:58:06;5.82;;;4.70;;
29412;SDS011;16389;50.126;8.450;2023-04-16T14:00:32;5.93;;;5.32;;
29412;SDS011;16389;50.126;8.450;2023-04-16T14:02:58;8.80;;;5.40;;
29412;SDS011;16389;50.126;8.450;2023-04-16T14:05:23;8.07;;;4.53;;
29412;SDS011;16389;50.126;8.450;2023-04-16T14:07:49;7.15;;;5.25;;
29412;SDS011;16389;50.126;8.450;2023-04-16T14:10:15;4.88;;;4.25;;
29412;SDS011;16389;50.126;8.450;2023-04-16T14:12:42;5.97;;;4.75;;
29412;SDS011;16389;50.126;8.450;2023-04-16T14:15:08;5.53;;;4.35;;
29412;SDS011;16389;50.126;8.450;2023-04-16T14:17:34;6.15;;;4.95;;
29412;SDS011;16389;50.126;8.450;2023-04-16T14:20:01;6.35;;;3.58;;
29412;SDS011;16389;50.126;8.450;2023-04-16T14:22:28;5.28;;;4.10;;
29412;SDS011;16389;50.126;8.450;2023-04-16T14:24:54;4.82;;;3.85;;
29412;SDS011;16389;50.126;8.450;2023-04-16T14:27:20;4.20;;;3.40;;
29412;SDS011;16389;50.126;8.450;2023-04-16T14:29:46;3.95;;;3.38;;
29412;SDS011;16389;50.126;8.450;2023-04-16T14:32:11;4.68;;;3.60;;
29412;SDS011;16389;50.126;8.450;2023-04-16T14:34:38;4.35;;;3.47;;
29412;SDS011;16389;50.126;8.450;2023-04-16T14:37:04;4.00;;;3.10;;
29412;SDS011;16389;50.126;8.450;2023-04-16T14:39:30;3.17;;;2.63;;
29412;SDS011;16389;50.126;8.450;2023-04-16T14:41:58;3.40;;;2.83;;
29412;SDS011;16389;50.126;8.450;2023-04-16T14:44:24;4.28;;;3.53;;
29412;SDS011;16389;50.126;8.450;2023-04-16T14:46:49;5.55;;;3.72;;
29412;SDS011;16389;50.126;8.450;2023-04-16T14:49:15;5.30;;;2.72;;
29412;SDS011;16389;50.126;8.450;2023-04-16T14:51:41;4.18;;;3.30;;
29412;SDS011;16389;50.126;8.450;2023-04-16T14:54:09;4.68;;;3.50;;
29412;SDS011;16389;50.126;8.450;2023-04-16T14:56:35;3.65;;;3.22;;
29412;SDS011;16389;50.126;8.450;2023-04-16T14:59:01;4.40;;;2.80;;
29412;SDS011;16389;50.126;8.450;2023-04-16T15:01:26;3.88;;;3.25;;
29412;SDS011;16389;50.126;8.450;2023-04-16T15:03:53;4.25;;;3.55;;